sensor_id;sensor_type;location;lat;lon;timestamp;P1;durP1;ratioP1;P2;durP2;ratioP2
57746;SDS011;43580;44.014;20.466;2022-08-20T00:02:18;21.83;;;11.68;;
57746;SDS011;43580;44.014;20.466;2022-08-20T00:04:45;26.90;;;12.30;;
57746;SDS011;43580;44.014;20.466;2022-08-20T00:07:11;23.65;;;11.95;;
57746;SDS011;43580;44.014;20.466;2022-08-20T00:09:38;21.30;;;11.95;;
57746;SDS011;43580;44.014;20.466;2022-08-20T00:12:05;26.08;;;11.18;;
57746;SDS011;43580;44.014;20.466;2022-08-20T00:14:32;20.35;;;10.98;;
57746;SDS011;43580;44.014;20.466;2022-08-20T00:16:59;22.77;;;11.52;;
57746;SDS011;43580;44.014;20.466;2022-08-20T00:19:25;26.35;;;12.27;;
57746;SDS011;43580;44.014;20.466;2022-08-20T00:21:51;25.77;;;12.43;;
57746;SDS011;43580;44.014;20.466;2022-08-20T00:24:17;26.20;;;11.70;;
57746;SDS011;43580;44.014;20.466;2022-08-20T00:26:43;24.63;;;12.20;;
57746;SDS011;43580;44.014;20.466;2022-08-20T00:29:09;28.92;;;11.85;;
57746;SDS011;43580;44.014;20.466;2022-08-20T00:31:35;27.65;;;12.13;;
57746;SDS011;43580;44.014;20.466;2022-08-20T00:34:01;28.17;;;11.55;;
57746;SDS011;43580;44.014;20.466;2022-08-20T00:36:27;23.40;;;11.48;;
57746;SDS011;43580;44.014;20.466;2022-08-20T00:38:53;21.13;;;11.25;;
57746;SDS011;43580;44.014;20.466;2022-08-20T00:41:21;23.77;;;11.73;;
57746;SDS011;43580;44.014;20.466;2022-08-20T00:43:49;27.50;;;11.25;;
57746;SDS011;43580;44.014;20.466;2022-08-20T00:46:20;28.40;;;11.95;;
57746;SDS011;43580;44.014;20.466;2022-08-20T00:48:49;23.52;;;10.38;;
57746;SDS011;43580;44.014;20.466;2022-08-20T00:53:41;19.80;;;10.00;;
57746;SDS011;43580;44.014;20.466;2022-08-20T00:56:07;23.35;;;11.10;;
57746;SDS011;43580;44.014;20.466;2022-08-20T00:58:35;25.10;;;11.95;;
57746;SDS011;43580;44.014;20.466;2022-08-20T01:01:04;23.70;;;11.90;;
57746;SDS011;43580;44.014;20.466;2022-08-20T01:03:33;21.92;;;11.55;;
57746;SDS011;43580;44.014;20.466;2022-08-20T01:05:59;22.77;;;11.20;;
57746;SDS011;43580;44.014;20.466;2022-08-20T01:08:26;28.67;;;12.85;;
57746;SDS011;43580;44.014;20.466;2022-08-20T01:10:53;27.65;;;12.00;;
57746;SDS011;43580;44.014;20.466;2022-08-20T01:13:32;27.85;;;12.23;;
57746;SDS011;43580;44.014;20.466;2022-08-20T01:16:03;28.15;;;12.27;;
57746;SDS011;43580;44.014;20.466;2022-08-20T01:18:29;24.92;;;11.48;;
57746;SDS011;43580;44.014;20.466;2022-08-20T01:21:00;26.98;;;12.05;;
57746;SDS011;43580;44.014;20.466;2022-08-20T01:28:40;23.98;;;11.70;;
57746;SDS011;43580;44.014;20.466;2022-08-20T01:31:09;25.45;;;11.68;;
57746;SDS011;43580;44.014;20.466;2022-08-20T01:33:35;25.92;;;11.68;;
57746;SDS011;43580;44.014;20.466;2022-08-20T01:36:04;26.80;;;11.55;;
57746;SDS011;43580;44.014;20.466;2022-08-20T01:38:33;25.10;;;11.00;;
57746;SDS011;43580;44.014;20.466;2022-08-20T01:43:31;20.90;;;11.27;;
57746;SDS011;43580;44.014;20.466;2022-08-20T01:45:57;28.92;;;11.43;;
57746;SDS011;43580;44.014;20.466;2022-08-20T01:48:23;26.85;;;11.27;;
57746;SDS011;43580;44.014;20.466;2022-08-20T01:51:03;26.05;;;11.00;;
57746;SDS011;43580;44.014;20.466;2022-08-20T01:53:31;28.30;;;11.20;;
57746;SDS011;43580;44.014;20.466;2022-08-20T01:55:58;25.63;;;11.95;;
57746;SDS011;43580;44.014;20.466;2022-08-20T01:58:25;24.52;;;11.32;;
57746;SDS011;43580;44.014;20.466;2022-08-20T02:00:53;21.10;;;10.93;;
57746;SDS011;43580;44.014;20.466;2022-08-20T02:03:22;26.83;;;11.38;;
57746;SDS011;43580;44.014;20.466;2022-08-20T02:05:48;26.33;;;11.02;;
57746;SDS011;43580;44.014;20.466;2022-08-20T02:08:18;25.65;;;11.23;;
57746;SDS011;43580;44.014;20.466;2022-08-20T02:10:44;23.60;;;10.52;;
57746;SDS011;43580;44.014;20.466;2022-08-20T02:13:10;24.67;;;10.75;;
57746;SDS011;43580;44.014;20.466;2022-08-20T02:15:37;25.45;;;11.95;;
57746;SDS011;43580;44.014;20.466;2022-08-20T02:18:08;22.60;;;10.75;;
57746;SDS011;43580;44.014;20.466;2022-08-20T02:20:35;30.38;;;11.55;;
57746;SDS011;43580;44.014;20.466;2022-08-20T02:23:02;21.55;;;11.05;;
57746;SDS011;43580;44.014;20.466;2022-08-20T02:25:29;23.65;;;10.45;;
57746;SDS011;43580;44.014;20.466;2022-08-20T02:27:56;20.80;;;10.75;;
57746;SDS011;43580;44.014;20.466;2022-08-20T02:30:29;22.25;;;10.57;;
57746;SDS011;43580;44.014;20.466;2022-08-20T02:32:57;25.67;;;10.60;;
57746;SDS011;43580;44.014;20.466;2022-08-20T02:35:24;23.42;;;11.65;;
57746;SDS011;43580;44.014;20.466;2022-08-20T02:37:50;25.42;;;11.30;;
57746;SDS011;43580;44.014;20.466;2022-08-20T02:40:17;26.85;;;11.25;;
57746;SDS011;43580;44.014;20.466;2022-08-20T02:42:46;21.42;;;11.27;;
57746;SDS011;43580;44.014;20.466;2022-08-20T02:45:14;29.58;;;11.30;;
57746;SDS011;43580;44.014;20.466;2022-08-20T02:47:42;21.58;;;10.55;;
57746;SDS011;43580;44.014;20.466;2022-08-20T02:50:13;18.42;;;10.82;;
57746;SDS011;43580;44.014;20.466;2022-08-20T02:52:41;28.42;;;11.60;;
57746;SDS011;43580;44.014;20.466;2022-08-20T02:55:08;25.52;;;11.20;;
57746;SDS011;43580;44.014;20.466;2022-08-20T02:57:34;29.50;;;11.30;;
57746;SDS011;43580;44.014;20.466;2022-08-20T03:00:13;20.33;;;10.13;;
57746;SDS011;43580;44.014;20.466;2022-08-20T03:02:40;26.00;;;10.63;;
57746;SDS011;43580;44.014;20.466;2022-08-20T03:05:06;21.30;;;10.32;;
57746;SDS011;43580;44.014;20.466;2022-08-20T03:07:39;24.50;;;10.75;;
57746;SDS011;43580;44.014;20.466;2022-08-20T03:10:05;23.08;;;10.02;;
57746;SDS011;43580;44.014;20.466;2022-08-20T03:12:31;22.63;;;10.50;;
57746;SDS011;43580;44.014;20.466;2022-08-20T03:14:57;26.10;;;10.95;;
57746;SDS011;43580;44.014;20.466;2022-08-20T03:17:23;25.83;;;12.10;;
57746;SDS011;43580;44.014;20.466;2022-08-20T03:19:49;27.90;;;14.38;;
57746;SDS011;43580;44.014;20.466;2022-08-20T03:22:15;27.70;;;13.82;;
57746;SDS011;43580;44.014;20.466;2022-08-20T03:24:41;25.95;;;14.85;;
57746;SDS011;43580;44.014;20.466;2022-08-20T03:27:08;31.52;;;14.80;;
57746;SDS011;43580;44.014;20.466;2022-08-20T03:29:34;23.88;;;14.02;;
57746;SDS011;43580;44.014;20.466;2022-08-20T03:32:00;26.58;;;13.20;;
57746;SDS011;43580;44.014;20.466;2022-08-20T03:34:26;21.77;;;11.43;;
57746;SDS011;43580;44.014;20.466;2022-08-20T03:36:52;24.45;;;10.32;;
57746;SDS011;43580;44.014;20.466;2022-08-20T03:39:19;25.95;;;10.68;;
57746;SDS011;43580;44.014;20.466;2022-08-20T03:41:45;19.92;;;10.65;;
57746;SDS011;43580;44.014;20.466;2022-08-20T03:44:11;22.30;;;11.15;;
57746;SDS011;43580;44.014;20.466;2022-08-20T03:46:37;25.52;;;11.35;;
57746;SDS011;43580;44.014;20.466;2022-08-20T03:49:04;27.60;;;10.82;;
57746;SDS011;43580;44.014;20.466;2022-08-20T03:51:30;31.60;;;12.75;;
57746;SDS011;43580;44.014;20.466;2022-08-20T03:53:57;19.20;;;10.25;;
57746;SDS011;43580;44.014;20.466;2022-08-20T03:56:24;19.75;;;9.95;;
57746;SDS011;43580;44.014;20.466;2022-08-20T03:58:50;21.02;;;10.48;;
57746;SDS011;43580;44.014;20.466;2022-08-20T04:01:16;17.70;;;10.77;;
57746;SDS011;43580;44.014;20.466;2022-08-20T04:03:42;21.58;;;11.40;;
57746;SDS011;43580;44.014;20.466;2022-08-20T04:06:09;27.45;;;10.73;;
57746;SDS011;43580;44.014;20.466;2022-08-20T04:08:35;20.35;;;9.95;;
57746;SDS011;43580;44.014;20.466;2022-08-20T04:11:05;21.70;;;10.27;;
57746;SDS011;43580;44.014;20.466;2022-08-20T04:13:32;21.70;;;10.57;;
57746;SDS011;43580;44.014;20.466;2022-08-20T04:16:01;24.90;;;10.10;;
57746;SDS011;43580;44.014;20.466;2022-08-20T04:18:33;23.63;;;10.05;;
57746;SDS011;43580;44.014;20.466;2022-08-20T04:21:01;26.25;;;10.32;;
57746;SDS011;43580;44.014;20.466;2022-08-20T04:23:27;23.60;;;8.57;;
57746;SDS011;43580;44.014;20.466;2022-08-20T04:25:54;23.25;;;9.48;;
57746;SDS011;43580;44.014;20.466;2022-08-20T04:28:20;21.52;;;9.20;;
57746;SDS011;43580;44.014;20.466;2022-08-20T04:30:55;18.60;;;9.18;;
57746;SDS011;43580;44.014;20.466;2022-08-20T04:33:21;23.13;;;9.60;;
57746;SDS011;43580;44.014;20.466;2022-08-20T04:35:50;23.92;;;9.68;;
57746;SDS011;43580;44.014;20.466;2022-08-20T04:38:17;19.73;;;9.18;;
57746;SDS011;43580;44.014;20.466;2022-08-20T04:40:43;22.73;;;10.05;;
57746;SDS011;43580;44.014;20.466;2022-08-20T04:43:22;19.83;;;8.90;;
57746;SDS011;43580;44.014;20.466;2022-08-20T04:45:48;19.77;;;9.70;;
57746;SDS011;43580;44.014;20.466;2022-08-20T04:48:16;21.40;;;10.10;;
57746;SDS011;43580;44.014;20.466;2022-08-20T04:50:43;24.35;;;9.63;;
57746;SDS011;43580;44.014;20.466;2022-08-20T04:53:11;24.63;;;9.63;;
57746;SDS011;43580;44.014;20.466;2022-08-20T04:55:38;21.42;;;9.75;;
57746;SDS011;43580;44.014;20.466;2022-08-20T04:58:16;24.65;;;9.93;;
57746;SDS011;43580;44.014;20.466;2022-08-20T05:00:47;23.25;;;9.95;;
57746;SDS011;43580;44.014;20.466;2022-08-20T05:03:13;29.20;;;10.93;;
57746;SDS011;43580;44.014;20.466;2022-08-20T05:05:39;24.20;;;10.07;;
57746;SDS011;43580;44.014;20.466;2022-08-20T05:08:06;19.52;;;9.50;;
57746;SDS011;43580;44.014;20.466;2022-08-20T05:10:32;19.23;;;9.90;;
57746;SDS011;43580;44.014;20.466;2022-08-20T05:13:00;27.40;;;10.40;;
57746;SDS011;43580;44.014;20.466;2022-08-20T05:15:26;22.65;;;9.40;;
57746;SDS011;43580;44.014;20.466;2022-08-20T05:17:54;24.88;;;10.15;;
57746;SDS011;43580;44.014;20.466;2022-08-20T05:20:21;21.15;;;9.43;;
57746;SDS011;43580;44.014;20.466;2022-08-20T05:22:47;24.35;;;9.70;;
57746;SDS011;43580;44.014;20.466;2022-08-20T05:25:13;21.67;;;8.88;;
57746;SDS011;43580;44.014;20.466;2022-08-20T05:27:39;18.95;;;9.30;;
57746;SDS011;43580;44.014;20.466;2022-08-20T05:30:07;21.02;;;9.02;;
57746;SDS011;43580;44.014;20.466;2022-08-20T05:32:34;21.67;;;9.02;;
57746;SDS011;43580;44.014;20.466;2022-08-20T05:35:00;20.40;;;9.25;;
57746;SDS011;43580;44.014;20.466;2022-08-20T05:37:29;20.52;;;9.07;;
57746;SDS011;43580;44.014;20.466;2022-08-20T05:39:55;23.73;;;9.25;;
57746;SDS011;43580;44.014;20.466;2022-08-20T05:42:21;20.08;;;8.95;;
57746;SDS011;43580;44.014;20.466;2022-08-20T05:44:47;21.17;;;8.75;;
57746;SDS011;43580;44.014;20.466;2022-08-20T05:47:13;24.48;;;9.55;;
57746;SDS011;43580;44.014;20.466;2022-08-20T05:49:42;22.55;;;9.00;;
57746;SDS011;43580;44.014;20.466;2022-08-20T05:52:10;24.92;;;9.90;;
57746;SDS011;43580;44.014;20.466;2022-08-20T05:54:36;21.58;;;8.85;;
57746;SDS011;43580;44.014;20.466;2022-08-20T05:57:03;19.38;;;9.35;;
57746;SDS011;43580;44.014;20.466;2022-08-20T05:59:29;28.05;;;9.50;;
57746;SDS011;43580;44.014;20.466;2022-08-20T06:01:58;26.10;;;10.75;;
57746;SDS011;43580;44.014;20.466;2022-08-20T06:04:46;21.65;;;11.38;;
57746;SDS011;43580;44.014;20.466;2022-08-20T06:07:12;31.05;;;11.23;;
57746;SDS011;43580;44.014;20.466;2022-08-20T06:09:41;28.88;;;11.70;;
57746;SDS011;43580;44.014;20.466;2022-08-20T06:12:07;30.63;;;11.13;;
57746;SDS011;43580;44.014;20.466;2022-08-20T06:14:33;23.35;;;9.98;;
57746;SDS011;43580;44.014;20.466;2022-08-20T06:17:07;26.73;;;10.93;;
57746;SDS011;43580;44.014;20.466;2022-08-20T06:19:34;25.30;;;11.43;;
57746;SDS011;43580;44.014;20.466;2022-08-20T06:22:01;25.40;;;11.60;;
57746;SDS011;43580;44.014;20.466;2022-08-20T06:24:27;24.38;;;10.30;;
57746;SDS011;43580;44.014;20.466;2022-08-20T06:26:54;25.38;;;12.00;;
57746;SDS011;43580;44.014;20.466;2022-08-20T06:29:20;25.65;;;13.48;;
57746;SDS011;43580;44.014;20.466;2022-08-20T06:31:46;26.13;;;13.68;;
57746;SDS011;43580;44.014;20.466;2022-08-20T06:34:13;24.02;;;12.48;;
57746;SDS011;43580;44.014;20.466;2022-08-20T06:36:39;19.75;;;12.68;;
57746;SDS011;43580;44.014;20.466;2022-08-20T06:39:10;26.73;;;13.95;;
57746;SDS011;43580;44.014;20.466;2022-08-20T06:41:36;29.67;;;14.02;;
57746;SDS011;43580;44.014;20.466;2022-08-20T06:44:03;26.45;;;14.10;;
57746;SDS011;43580;44.014;20.466;2022-08-20T06:46:35;27.85;;;13.52;;
57746;SDS011;43580;44.014;20.466;2022-08-20T06:49:05;22.13;;;12.55;;
57746;SDS011;43580;44.014;20.466;2022-08-20T06:51:32;32.20;;;16.00;;
57746;SDS011;43580;44.014;20.466;2022-08-20T06:53:59;28.42;;;14.35;;
57746;SDS011;43580;44.014;20.466;2022-08-20T06:56:25;23.77;;;15.02;;
57746;SDS011;43580;44.014;20.466;2022-08-20T06:58:51;27.58;;;13.02;;
57746;SDS011;43580;44.014;20.466;2022-08-20T07:01:17;27.20;;;12.20;;
57746;SDS011;43580;44.014;20.466;2022-08-20T07:03:45;26.48;;;13.20;;
57746;SDS011;43580;44.014;20.466;2022-08-20T07:06:11;23.70;;;13.18;;
57746;SDS011;43580;44.014;20.466;2022-08-20T07:08:37;25.27;;;14.35;;
57746;SDS011;43580;44.014;20.466;2022-08-20T07:11:04;30.92;;;14.93;;
57746;SDS011;43580;44.014;20.466;2022-08-20T07:13:30;27.38;;;14.23;;
57746;SDS011;43580;44.014;20.466;2022-08-20T07:15:56;28.02;;;13.98;;
57746;SDS011;43580;44.014;20.466;2022-08-20T07:18:22;30.38;;;16.02;;
57746;SDS011;43580;44.014;20.466;2022-08-20T07:20:49;30.95;;;17.13;;
57746;SDS011;43580;44.014;20.466;2022-08-20T07:23:15;29.23;;;18.90;;
57746;SDS011;43580;44.014;20.466;2022-08-20T07:25:42;28.00;;;20.05;;
57746;SDS011;43580;44.014;20.466;2022-08-20T07:28:12;37.08;;;20.92;;
57746;SDS011;43580;44.014;20.466;2022-08-20T07:30:39;31.98;;;19.15;;
57746;SDS011;43580;44.014;20.466;2022-08-20T07:33:25;32.22;;;21.60;;
57746;SDS011;43580;44.014;20.466;2022-08-20T07:35:52;28.45;;;18.40;;
57746;SDS011;43580;44.014;20.466;2022-08-20T07:38:20;29.63;;;19.17;;
57746;SDS011;43580;44.014;20.466;2022-08-20T07:40:54;27.98;;;18.30;;
57746;SDS011;43580;44.014;20.466;2022-08-20T07:43:20;30.40;;;18.27;;
57746;SDS011;43580;44.014;20.466;2022-08-20T07:45:53;27.58;;;15.07;;
57746;SDS011;43580;44.014;20.466;2022-08-20T07:48:20;28.17;;;16.45;;
57746;SDS011;43580;44.014;20.466;2022-08-20T07:50:49;32.00;;;16.27;;
57746;SDS011;43580;44.014;20.466;2022-08-20T07:53:15;30.13;;;16.48;;
57746;SDS011;43580;44.014;20.466;2022-08-20T07:55:41;34.65;;;18.73;;
57746;SDS011;43580;44.014;20.466;2022-08-20T07:58:10;32.72;;;18.98;;
57746;SDS011;43580;44.014;20.466;2022-08-20T08:00:36;35.25;;;21.05;;
57746;SDS011;43580;44.014;20.466;2022-08-20T08:03:02;34.80;;;21.88;;
57746;SDS011;43580;44.014;20.466;2022-08-20T08:05:29;37.50;;;20.40;;
57746;SDS011;43580;44.014;20.466;2022-08-20T08:07:55;34.78;;;22.08;;
57746;SDS011;43580;44.014;20.466;2022-08-20T08:10:24;31.33;;;20.45;;
57746;SDS011;43580;44.014;20.466;2022-08-20T08:12:53;36.63;;;20.95;;
57746;SDS011;43580;44.014;20.466;2022-08-20T08:15:22;31.05;;;20.45;;
57746;SDS011;43580;44.014;20.466;2022-08-20T08:17:49;31.25;;;18.50;;
57746;SDS011;43580;44.014;20.466;2022-08-20T08:20:17;32.50;;;19.50;;
57746;SDS011;43580;44.014;20.466;2022-08-20T08:22:48;35.70;;;18.10;;
57746;SDS011;43580;44.014;20.466;2022-08-20T08:25:15;31.52;;;18.80;;
57746;SDS011;43580;44.014;20.466;2022-08-20T08:27:43;36.90;;;20.17;;
57746;SDS011;43580;44.014;20.466;2022-08-20T08:30:13;30.75;;;19.77;;
57746;SDS011;43580;44.014;20.466;2022-08-20T08:32:39;36.80;;;20.65;;
57746;SDS011;43580;44.014;20.466;2022-08-20T08:35:24;31.08;;;19.65;;
57746;SDS011;43580;44.014;20.466;2022-08-20T08:37:50;33.15;;;22.15;;
57746;SDS011;43580;44.014;20.466;2022-08-20T08:40:18;34.10;;;22.00;;
57746;SDS011;43580;44.014;20.466;2022-08-20T08:42:45;39.08;;;26.48;;
57746;SDS011;43580;44.014;20.466;2022-08-20T08:45:13;33.63;;;24.05;;
57746;SDS011;43580;44.014;20.466;2022-08-20T08:47:42;41.67;;;29.48;;
57746;SDS011;43580;44.014;20.466;2022-08-20T08:50:14;42.28;;;29.38;;
57746;SDS011;43580;44.014;20.466;2022-08-20T08:52:45;40.15;;;26.55;;
57746;SDS011;43580;44.014;20.466;2022-08-20T08:55:15;44.95;;;28.13;;
57746;SDS011;43580;44.014;20.466;2022-08-20T08:57:45;40.88;;;28.08;;
57746;SDS011;43580;44.014;20.466;2022-08-20T09:00:13;41.17;;;27.77;;
57746;SDS011;43580;44.014;20.466;2022-08-20T09:02:52;34.17;;;24.50;;
57746;SDS011;43580;44.014;20.466;2022-08-20T09:05:21;36.10;;;23.83;;
57746;SDS011;43580;44.014;20.466;2022-08-20T09:07:50;33.42;;;24.27;;
57746;SDS011;43580;44.014;20.466;2022-08-20T09:10:18;35.63;;;22.80;;
57746;SDS011;43580;44.014;20.466;2022-08-20T09:12:44;34.30;;;23.73;;
57746;SDS011;43580;44.014;20.466;2022-08-20T09:15:10;37.80;;;22.65;;
57746;SDS011;43580;44.014;20.466;2022-08-20T09:17:36;38.45;;;21.40;;
57746;SDS011;43580;44.014;20.466;2022-08-20T09:20:03;30.65;;;20.95;;
57746;SDS011;43580;44.014;20.466;2022-08-20T09:22:29;33.78;;;22.05;;
57746;SDS011;43580;44.014;20.466;2022-08-20T09:24:57;30.42;;;21.02;;
57746;SDS011;43580;44.014;20.466;2022-08-20T09:27:24;32.72;;;20.58;;
57746;SDS011;43580;44.014;20.466;2022-08-20T09:29:50;27.63;;;20.73;;
57746;SDS011;43580;44.014;20.466;2022-08-20T09:32:21;32.13;;;22.50;;
57746;SDS011;43580;44.014;20.466;2022-08-20T09:34:48;31.65;;;22.05;;
57746;SDS011;43580;44.014;20.466;2022-08-20T09:37:21;34.70;;;23.23;;
57746;SDS011;43580;44.014;20.466;2022-08-20T09:39:47;33.53;;;22.00;;
57746;SDS011;43580;44.014;20.466;2022-08-20T09:42:24;35.35;;;22.38;;
57746;SDS011;43580;44.014;20.466;2022-08-20T09:44:51;31.48;;;23.73;;
57746;SDS011;43580;44.014;20.466;2022-08-20T09:47:17;31.42;;;23.48;;
57746;SDS011;43580;44.014;20.466;2022-08-20T09:49:43;32.22;;;20.83;;
57746;SDS011;43580;44.014;20.466;2022-08-20T09:52:12;26.25;;;18.73;;
57746;SDS011;43580;44.014;20.466;2022-08-20T09:54:42;14.93;;;10.50;;
57746;SDS011;43580;44.014;20.466;2022-08-20T09:57:08;35.85;;;22.38;;
57746;SDS011;43580;44.014;20.466;2022-08-20T09:59:36;31.52;;;20.58;;
57746;SDS011;43580;44.014;20.466;2022-08-20T10:02:02;34.63;;;22.88;;
57746;SDS011;43580;44.014;20.466;2022-08-20T10:04:28;37.65;;;26.88;;
57746;SDS011;43580;44.014;20.466;2022-08-20T10:06:55;41.80;;;25.65;;
57746;SDS011;43580;44.014;20.466;2022-08-20T10:09:21;39.15;;;27.23;;
57746;SDS011;43580;44.014;20.466;2022-08-20T10:11:48;39.83;;;26.83;;
57746;SDS011;43580;44.014;20.466;2022-08-20T10:14:14;37.63;;;24.63;;
57746;SDS011;43580;44.014;20.466;2022-08-20T10:16:40;34.90;;;22.90;;
57746;SDS011;43580;44.014;20.466;2022-08-20T10:19:06;39.08;;;26.95;;
57746;SDS011;43580;44.014;20.466;2022-08-20T10:21:32;31.30;;;22.13;;
57746;SDS011;43580;44.014;20.466;2022-08-20T10:23:58;36.15;;;22.10;;
57746;SDS011;43580;44.014;20.466;2022-08-20T10:26:24;29.73;;;22.13;;
57746;SDS011;43580;44.014;20.466;2022-08-20T10:28:51;34.40;;;22.48;;
57746;SDS011;43580;44.014;20.466;2022-08-20T10:31:22;44.85;;;22.98;;
57746;SDS011;43580;44.014;20.466;2022-08-20T10:33:48;31.45;;;23.38;;
57746;SDS011;43580;44.014;20.466;2022-08-20T10:36:15;33.47;;;23.23;;
57746;SDS011;43580;44.014;20.466;2022-08-20T10:38:42;32.85;;;23.33;;
57746;SDS011;43580;44.014;20.466;2022-08-20T10:41:09;40.03;;;26.08;;
57746;SDS011;43580;44.014;20.466;2022-08-20T10:43:35;37.65;;;26.15;;
57746;SDS011;43580;44.014;20.466;2022-08-20T10:46:03;34.20;;;24.13;;
57746;SDS011;43580;44.014;20.466;2022-08-20T10:48:30;39.08;;;24.00;;
57746;SDS011;43580;44.014;20.466;2022-08-20T10:50:56;38.65;;;25.13;;
57746;SDS011;43580;44.014;20.466;2022-08-20T10:53:22;33.63;;;23.38;;
57746;SDS011;43580;44.014;20.466;2022-08-20T10:55:54;36.13;;;24.90;;
57746;SDS011;43580;44.014;20.466;2022-08-20T10:58:21;37.00;;;23.80;;
57746;SDS011;43580;44.014;20.466;2022-08-20T11:00:48;34.00;;;24.23;;
57746;SDS011;43580;44.014;20.466;2022-08-20T11:03:14;32.47;;;22.02;;
57746;SDS011;43580;44.014;20.466;2022-08-20T11:05:40;35.72;;;21.95;;
57746;SDS011;43580;44.014;20.466;2022-08-20T11:08:06;35.30;;;20.52;;
57746;SDS011;43580;44.014;20.466;2022-08-20T11:10:33;30.50;;;20.30;;
57746;SDS011;43580;44.014;20.466;2022-08-20T11:13:03;31.27;;;19.05;;
57746;SDS011;43580;44.014;20.466;2022-08-20T11:15:30;31.55;;;19.55;;
57746;SDS011;43580;44.014;20.466;2022-08-20T11:17:57;31.02;;;21.77;;
57746;SDS011;43580;44.014;20.466;2022-08-20T11:20:23;37.28;;;23.33;;
57746;SDS011;43580;44.014;20.466;2022-08-20T11:22:50;35.83;;;23.50;;
57746;SDS011;43580;44.014;20.466;2022-08-20T11:25:16;37.22;;;21.08;;
57746;SDS011;43580;44.014;20.466;2022-08-20T11:27:44;21.15;;;13.50;;
57746;SDS011;43580;44.014;20.466;2022-08-20T11:30:12;24.70;;;13.43;;
57746;SDS011;43580;44.014;20.466;2022-08-20T12:53:37;17.02;;;9.43;;
57746;SDS011;43580;44.014;20.466;2022-08-20T12:56:03;17.88;;;8.05;;
57746;SDS011;43580;44.014;20.466;2022-08-20T12:58:32;17.60;;;7.40;;
57746;SDS011;43580;44.014;20.466;2022-08-20T13:00:58;16.02;;;8.40;;
57746;SDS011;43580;44.014;20.466;2022-08-20T13:03:25;13.13;;;7.47;;
57746;SDS011;43580;44.014;20.466;2022-08-20T13:05:51;14.60;;;7.00;;
57746;SDS011;43580;44.014;20.466;2022-08-20T13:08:17;18.70;;;7.07;;
57746;SDS011;43580;44.014;20.466;2022-08-20T13:10:45;10.73;;;6.75;;
57746;SDS011;43580;44.014;20.466;2022-08-20T13:13:12;14.15;;;6.18;;
57746;SDS011;43580;44.014;20.466;2022-08-20T13:15:39;9.85;;;5.28;;
57746;SDS011;43580;44.014;20.466;2022-08-20T13:18:05;11.68;;;5.32;;
57746;SDS011;43580;44.014;20.466;2022-08-20T13:20:31;12.35;;;4.82;;
57746;SDS011;43580;44.014;20.466;2022-08-20T13:22:58;11.30;;;5.47;;
57746;SDS011;43580;44.014;20.466;2022-08-20T13:25:24;9.95;;;4.80;;
57746;SDS011;43580;44.014;20.466;2022-08-20T13:27:53;10.45;;;4.55;;
57746;SDS011;43580;44.014;20.466;2022-08-20T13:30:21;11.93;;;4.32;;
57746;SDS011;43580;44.014;20.466;2022-08-20T13:32:47;11.00;;;3.80;;
57746;SDS011;43580;44.014;20.466;2022-08-20T13:35:13;8.02;;;3.80;;
57746;SDS011;43580;44.014;20.466;2022-08-20T13:37:43;10.00;;;3.90;;
57746;SDS011;43580;44.014;20.466;2022-08-20T13:40:09;9.25;;;4.20;;
57746;SDS011;43580;44.014;20.466;2022-08-20T13:42:35;6.85;;;4.45;;
57746;SDS011;43580;44.014;20.466;2022-08-20T13:45:02;9.25;;;4.40;;
57746;SDS011;43580;44.014;20.466;2022-08-20T13:47:30;7.85;;;4.20;;
57746;SDS011;43580;44.014;20.466;2022-08-20T13:52:34;10.63;;;4.35;;
57746;SDS011;43580;44.014;20.466;2022-08-20T13:55:02;8.65;;;4.80;;
57746;SDS011;43580;44.014;20.466;2022-08-20T13:57:28;12.50;;;5.22;;
57746;SDS011;43580;44.014;20.466;2022-08-20T13:59:55;10.95;;;4.57;;
57746;SDS011;43580;44.014;20.466;2022-08-20T14:02:22;7.07;;;4.15;;
57746;SDS011;43580;44.014;20.466;2022-08-20T14:04:49;9.57;;;4.07;;
57746;SDS011;43580;44.014;20.466;2022-08-20T14:07:23;7.53;;;3.95;;
57746;SDS011;43580;44.014;20.466;2022-08-20T14:09:50;7.80;;;3.67;;
57746;SDS011;43580;44.014;20.466;2022-08-20T14:12:19;8.68;;;4.57;;
57746;SDS011;43580;44.014;20.466;2022-08-20T14:14:49;10.40;;;4.53;;
57746;SDS011;43580;44.014;20.466;2022-08-20T14:17:22;11.00;;;5.18;;
57746;SDS011;43580;44.014;20.466;2022-08-20T14:19:49;9.05;;;5.05;;
57746;SDS011;43580;44.014;20.466;2022-08-20T14:22:15;8.85;;;4.40;;
57746;SDS011;43580;44.014;20.466;2022-08-20T14:24:43;14.50;;;4.40;;
57746;SDS011;43580;44.014;20.466;2022-08-20T14:27:09;11.68;;;4.55;;
57746;SDS011;43580;44.014;20.466;2022-08-20T14:29:37;9.38;;;4.22;;
57746;SDS011;43580;44.014;20.466;2022-08-20T14:32:03;6.93;;;3.83;;
57746;SDS011;43580;44.014;20.466;2022-08-20T14:34:30;7.50;;;3.10;;
57746;SDS011;43580;44.014;20.466;2022-08-20T14:36:56;8.23;;;3.78;;
57746;SDS011;43580;44.014;20.466;2022-08-20T14:39:33;7.60;;;3.17;;
57746;SDS011;43580;44.014;20.466;2022-08-20T14:42:00;8.90;;;2.80;;
57746;SDS011;43580;44.014;20.466;2022-08-20T14:44:26;5.10;;;2.65;;
57746;SDS011;43580;44.014;20.466;2022-08-20T14:46:54;9.38;;;3.25;;
57746;SDS011;43580;44.014;20.466;2022-08-20T14:49:22;9.30;;;3.17;;
57746;SDS011;43580;44.014;20.466;2022-08-20T14:51:48;7.65;;;2.90;;
57746;SDS011;43580;44.014;20.466;2022-08-20T14:54:14;9.95;;;2.55;;
57746;SDS011;43580;44.014;20.466;2022-08-20T14:56:40;7.38;;;2.70;;
57746;SDS011;43580;44.014;20.466;2022-08-20T14:59:06;7.18;;;2.40;;
57746;SDS011;43580;44.014;20.466;2022-08-20T15:01:32;5.55;;;2.35;;
57746;SDS011;43580;44.014;20.466;2022-08-20T15:03:58;6.05;;;2.38;;
57746;SDS011;43580;44.014;20.466;2022-08-20T15:06:24;5.40;;;2.85;;
57746;SDS011;43580;44.014;20.466;2022-08-20T15:08:51;6.10;;;2.70;;
57746;SDS011;43580;44.014;20.466;2022-08-20T15:11:17;4.97;;;2.67;;
57746;SDS011;43580;44.014;20.466;2022-08-20T15:13:46;9.85;;;2.80;;
57746;SDS011;43580;44.014;20.466;2022-08-20T15:16:12;10.27;;;2.80;;
57746;SDS011;43580;44.014;20.466;2022-08-20T15:18:38;9.93;;;4.57;;
57746;SDS011;43580;44.014;20.466;2022-08-20T15:21:07;6.07;;;3.13;;
57746;SDS011;43580;44.014;20.466;2022-08-20T15:23:33;9.63;;;3.38;;
57746;SDS011;43580;44.014;20.466;2022-08-20T15:25:59;8.70;;;3.42;;
57746;SDS011;43580;44.014;20.466;2022-08-20T15:28:25;8.10;;;3.83;;
57746;SDS011;43580;44.014;20.466;2022-08-20T15:30:51;6.25;;;2.63;;
57746;SDS011;43580;44.014;20.466;2022-08-20T15:33:17;6.35;;;2.90;;
57746;SDS011;43580;44.014;20.466;2022-08-20T15:35:43;9.02;;;3.03;;
57746;SDS011;43580;44.014;20.466;2022-08-20T15:38:14;8.02;;;3.40;;
57746;SDS011;43580;44.014;20.466;2022-08-20T15:40:40;6.53;;;3.40;;
57746;SDS011;43580;44.014;20.466;2022-08-20T15:43:07;10.13;;;3.60;;
57746;SDS011;43580;44.014;20.466;2022-08-20T15:45:33;9.80;;;3.17;;
57746;SDS011;43580;44.014;20.466;2022-08-20T15:53:00;8.48;;;4.03;;
57746;SDS011;43580;44.014;20.466;2022-08-20T15:55:29;11.77;;;4.28;;